createdAt,value
2023-03-16T00:00:51.213Z,4.8
2023-03-16T00:01:51.286Z,4.7
2023-03-16T00:02:51.271Z,4.7
2023-03-16T00:03:51.217Z,4.7
2023-03-16T00:04:51.258Z,4.7
2023-03-16T00:05:51.208Z,4.7
2023-03-16T00:06:51.236Z,4.7
2023-03-16T00:07:51.227Z,4.7
2023-03-16T00:08:51.212Z,4.7
2023-03-16T00:09:51.202Z,4.7
2023-03-16T00:10:51.236Z,4.8
2023-03-16T00:11:51.201Z,4.8
2023-03-16T00:12:51.253Z,4.8
2023-03-16T00:13:51.227Z,4.8
2023-03-16T00:14:51.219Z,4.7
2023-03-16T00:15:51.206Z,4.8
2023-03-16T00:16:51.225Z,4.8
2023-03-16T00:17:51.225Z,4.8
2023-03-16T00:18:51.226Z,4.8
2023-03-16T00:19:51.209Z,4.8
2023-03-16T00:20:51.212Z,4.8
2023-03-16T00:21:51.258Z,4.7
2023-03-16T00:22:51.232Z,4.7
2023-03-16T00:23:51.236Z,4.8
2023-03-16T00:24:51.217Z,4.7
2023-03-16T00:25:51.242Z,4.7
2023-03-16T00:26:51.226Z,4.7
2023-03-16T00:27:51.246Z,4.8
2023-03-16T00:28:51.218Z,4.7
2023-03-16T00:29:51.201Z,4.7
2023-03-16T00:30:51.253Z,4.7
2023-03-16T00:31:51.278Z,4.7
2023-03-16T00:32:51.566Z,4.8
2023-03-16T00:33:51.214Z,4.8
2023-03-16T00:34:51.207Z,4.8
2023-03-16T00:35:51.258Z,4.7
2023-03-16T00:36:51.229Z,4.7
2023-03-16T00:37:51.316Z,4.7
2023-03-16T00:38:51.220Z,4.7
2023-03-16T00:39:51.207Z,4.7
2023-03-16T00:40:51.285Z,4.7
2023-03-16T00:41:51.210Z,4.7
2023-03-16T00:42:51.242Z,4.7
2023-03-16T00:43:51.201Z,4.7
2023-03-16T00:44:51.224Z,4.7
2023-03-16T00:45:51.254Z,4.7
2023-03-16T00:46:51.224Z,4.7
2023-03-16T00:47:51.220Z,4.7
2023-03-16T00:48:51.210Z,4.7
2023-03-16T00:49:51.233Z,4.7
2023-03-16T00:50:51.210Z,4.7
2023-03-16T00:51:51.192Z,4.7
2023-03-16T00:52:51.234Z,4.7
2023-03-16T00:53:51.212Z,4.7
2023-03-16T00:54:51.210Z,4.7
2023-03-16T00:55:51.204Z,4.7
2023-03-16T00:56:51.202Z,4.7
2023-03-16T00:57:51.209Z,4.7
2023-03-16T00:58:51.213Z,4.7
2023-03-16T00:59:51.199Z,4.7
2023-03-16T01:00:51.301Z,4.7
2023-03-16T01:01:51.230Z,4.7
2023-03-16T01:02:51.350Z,4.7
2023-03-16T01:03:51.200Z,4.6
2023-03-16T01:04:51.211Z,4.6
2023-03-16T01:05:51.210Z,4.7
2023-03-16T01:06:51.215Z,4.7
2023-03-16T01:07:51.211Z,4.7
2023-03-16T01:08:51.205Z,4.7
2023-03-16T01:09:51.217Z,4.7
2023-03-16T01:10:51.212Z,4.7
2023-03-16T01:11:51.199Z,4.7
2023-03-16T01:12:51.226Z,4.7
2023-03-16T01:13:51.197Z,4.7
2023-03-16T01:14:51.209Z,4.7
2023-03-16T01:15:51.200Z,4.7
2023-03-16T01:16:51.308Z,4.7
2023-03-16T01:17:51.201Z,4.7
2023-03-16T01:18:51.216Z,4.7
2023-03-16T01:19:51.205Z,4.7
2023-03-16T01:20:51.202Z,4.7
2023-03-16T01:21:51.204Z,4.7
2023-03-16T01:22:51.200Z,4.7
2023-03-16T01:23:51.224Z,4.7
2023-03-16T01:24:51.204Z,4.7
2023-03-16T01:25:51.201Z,4.7
2023-03-16T01:26:51.199Z,4.7
2023-03-16T01:27:51.202Z,4.7
2023-03-16T01:28:51.290Z,4.7
2023-03-16T01:29:51.363Z,4.7
2023-03-16T01:30:51.238Z,4.7
2023-03-16T01:31:51.202Z,4.6
2023-03-16T01:32:51.289Z,4.7
2023-03-16T01:33:51.202Z,4.6
2023-03-16T01:34:51.204Z,4.6
2023-03-16T01:35:51.276Z,4.6
2023-03-16T01:36:51.206Z,4.7
2023-03-16T01:37:51.256Z,4.7
2023-03-16T01:38:51.228Z,4.7
2023-03-16T01:39:51.189Z,4.7
2023-03-16T01:40:51.198Z,4.6
2023-03-16T01:41:51.195Z,4.6
2023-03-16T01:42:51.207Z,4.6
2023-03-16T01:43:51.214Z,4.6
2023-03-16T01:44:51.214Z,4.6
2023-03-16T01:45:51.248Z,4.6
2023-03-16T01:46:51.266Z,4.6
2023-03-16T01:47:51.215Z,4.7
2023-03-16T01:48:51.210Z,4.7
2023-03-16T01:49:51.195Z,4.6
2023-03-16T01:50:51.205Z,4.6
2023-03-16T01:51:51.193Z,4.6
2023-03-16T01:52:51.204Z,4.6
2023-03-16T01:53:51.197Z,4.6
2023-03-16T01:54:51.199Z,4.6
2023-03-16T01:55:51.200Z,4.5
2023-03-16T01:56:51.200Z,4.6
2023-03-16T01:57:51.192Z,4.5
2023-03-16T01:58:51.201Z,4.6
2023-03-16T01:59:51.194Z,4.6
2023-03-16T02:00:51.210Z,4.6
2023-03-16T02:01:51.271Z,4.6
2023-03-16T02:02:51.260Z,4.6
2023-03-16T02:03:51.226Z,4.6
2023-03-16T02:04:51.198Z,4.6
2023-03-16T02:05:51.205Z,4.6
2023-03-16T02:06:51.244Z,4.6
2023-03-16T02:07:51.201Z,4.6
2023-03-16T02:08:51.213Z,4.6
2023-03-16T02:09:51.196Z,4.6
2023-03-16T02:10:51.220Z,4.6
2023-03-16T02:11:51.200Z,4.6
2023-03-16T02:12:51.203Z,4.5
2023-03-16T02:13:51.193Z,4.6
2023-03-16T02:14:51.218Z,4.6
2023-03-16T02:15:51.239Z,4.5
2023-03-16T02:16:51.203Z,4.6
2023-03-16T02:17:51.193Z,4.6
2023-03-16T02:18:51.221Z,4.6
2023-03-16T02:19:51.204Z,4.5
2023-03-16T02:20:51.358Z,4.5
2023-03-16T02:21:51.209Z,4.5
2023-03-16T02:22:51.213Z,4.6
2023-03-16T02:23:51.195Z,4.6
2023-03-16T02:24:51.224Z,4.5
2023-03-16T02:25:51.204Z,4.5
2023-03-16T02:26:51.190Z,4.5
2023-03-16T02:27:51.211Z,4.5
2023-03-16T02:28:51.245Z,4.5
2023-03-16T02:29:51.197Z,4.5
2023-03-16T02:30:51.311Z,4.5
2023-03-16T02:31:51.198Z,4.5
2023-03-16T02:32:51.244Z,4.5
2023-03-16T02:33:51.204Z,4.5
2023-03-16T02:34:51.246Z,4.5
2023-03-16T02:35:51.225Z,4.5
2023-03-16T02:36:51.195Z,4.5
2023-03-16T02:37:51.187Z,4.5
2023-03-16T02:38:51.216Z,4.5
2023-03-16T02:39:51.208Z,4.5
2023-03-16T02:40:51.207Z,4.5
2023-03-16T02:41:51.182Z,4.5
2023-03-16T02:42:51.200Z,4.5
2023-03-16T02:43:51.252Z,4.5
2023-03-16T02:44:51.292Z,4.6
2023-03-16T02:45:51.263Z,4.5
2023-03-16T02:46:51.289Z,4.6
2023-03-16T02:47:51.187Z,4.5
2023-03-16T02:48:51.186Z,4.5
2023-03-16T02:49:51.196Z,4.6
2023-03-16T02:50:51.201Z,4.6
2023-03-16T02:51:51.317Z,4.5
2023-03-16T02:52:51.213Z,4.5
2023-03-16T02:53:51.234Z,4.5
2023-03-16T02:54:51.235Z,4.5
2023-03-16T02:55:51.420Z,4.5
2023-03-16T02:56:51.533Z,4.5
2023-03-16T02:57:51.229Z,4.5
2023-03-16T02:58:51.189Z,4.5
2023-03-16T02:59:51.194Z,4.5
2023-03-16T03:00:51.183Z,4.5
2023-03-16T03:01:51.190Z,4.5
2023-03-16T03:02:51.229Z,4.5
2023-03-16T03:03:51.187Z,4.5
2023-03-16T03:04:51.214Z,4.5
2023-03-16T03:05:51.208Z,4.5
2023-03-16T03:06:51.208Z,4.5
2023-03-16T03:07:51.195Z,4.5
2023-03-16T03:08:51.193Z,4.5
2023-03-16T03:09:51.191Z,4.5
2023-03-16T03:10:51.218Z,4.5
2023-03-16T03:11:51.212Z,4.5
2023-03-16T03:12:51.199Z,4.5
2023-03-16T03:13:51.194Z,4.4
2023-03-16T03:14:51.211Z,4.4
2023-03-16T03:15:51.244Z,4.5
2023-03-16T03:16:51.189Z,4.5
2023-03-16T03:17:51.188Z,4.5
2023-03-16T03:18:51.208Z,4.5
2023-03-16T03:19:51.182Z,4.5
2023-03-16T03:20:51.200Z,4.5
2023-03-16T03:21:51.190Z,4.5
2023-03-16T03:22:51.232Z,4.5
2023-03-16T03:23:51.171Z,4.4
2023-03-16T03:24:51.195Z,4.5
2023-03-16T03:25:51.186Z,4.5
2023-03-16T03:26:51.205Z,4.5
2023-03-16T03:27:51.279Z,4.5
2023-03-16T03:28:51.201Z,4.4
2023-03-16T03:29:51.208Z,4.4
2023-03-16T03:30:51.196Z,4.4
2023-03-16T03:31:51.240Z,4.4
2023-03-16T03:32:51.278Z,4.5
2023-03-16T03:33:51.210Z,4.5
2023-03-16T03:34:51.195Z,4.5
2023-03-16T03:35:51.204Z,4.5
2023-03-16T03:36:51.363Z,4.5
2023-03-16T03:37:51.185Z,4.5
2023-03-16T03:38:51.183Z,4.4
2023-03-16T03:39:51.203Z,4.5
2023-03-16T03:40:51.181Z,4.4
2023-03-16T03:41:51.309Z,4.5
2023-03-16T03:42:51.190Z,4.4
2023-03-16T03:43:51.186Z,4.4
2023-03-16T03:44:51.205Z,4.4
2023-03-16T03:45:51.283Z,4.4
2023-03-16T03:46:51.247Z,4.5
2023-03-16T03:47:51.194Z,4.4
2023-03-16T03:48:51.200Z,4.4
2023-03-16T03:49:51.177Z,4.4
2023-03-16T03:50:51.181Z,4.4
2023-03-16T03:51:51.431Z,4.4
2023-03-16T03:52:51.176Z,4.4
2023-03-16T03:53:51.183Z,4.4
2023-03-16T03:54:51.187Z,4.4
2023-03-16T03:55:51.168Z,4.5
2023-03-16T03:56:51.193Z,4.5
2023-03-16T03:57:51.186Z,4.4
2023-03-16T03:58:51.179Z,4.4
2023-03-16T03:59:51.190Z,4.4
2023-03-16T04:00:51.196Z,4.5
2023-03-16T04:01:51.322Z,4.5
2023-03-16T04:02:51.335Z,4.5
2023-03-16T04:03:51.172Z,4.4
2023-03-16T04:04:51.195Z,4.4
2023-03-16T04:05:51.174Z,4.5
2023-03-16T04:06:51.190Z,4.5
2023-03-16T04:07:51.205Z,4.5
2023-03-16T04:08:51.196Z,4.4
2023-03-16T04:09:51.171Z,4.5
2023-03-16T04:10:51.177Z,4.5
2023-03-16T04:11:51.180Z,4.5
2023-03-16T04:12:51.175Z,4.5
2023-03-16T04:13:51.178Z,4.5
2023-03-16T04:14:51.208Z,4.5
2023-03-16T04:15:51.194Z,4.5
2023-03-16T04:16:51.258Z,4.5
2023-03-16T04:17:51.169Z,4.5
2023-03-16T04:18:51.166Z,4.5
2023-03-16T04:19:51.189Z,4.5
2023-03-16T04:20:51.205Z,4.5
2023-03-16T04:21:51.179Z,4.5
2023-03-16T04:22:51.175Z,4.5
2023-03-16T04:23:51.186Z,4.5
2023-03-16T04:24:51.174Z,4.5
2023-03-16T04:25:51.172Z,4.5
2023-03-16T04:26:51.191Z,4.6
2023-03-16T04:27:51.178Z,4.5
2023-03-16T04:28:51.178Z,4.5
2023-03-16T04:29:51.193Z,4.6
2023-03-16T04:30:51.233Z,4.5
2023-03-16T04:31:51.177Z,4.5
2023-03-16T04:32:51.271Z,4.5
2023-03-16T04:33:51.167Z,4.5
2023-03-16T04:34:51.173Z,4.5
2023-03-16T04:35:51.206Z,4.5
2023-03-16T04:36:51.184Z,4.5
2023-03-16T04:37:51.171Z,4.6
2023-03-16T04:38:51.283Z,4.6
2023-03-16T04:39:51.189Z,4.6
2023-03-16T04:40:51.185Z,4.6
2023-03-16T04:41:51.176Z,4.6
2023-03-16T04:42:51.169Z,4.6
2023-03-16T04:43:51.198Z,4.6
2023-03-16T04:44:51.200Z,4.6
2023-03-16T04:45:51.281Z,4.6
2023-03-16T04:46:51.226Z,4.6
2023-03-16T04:47:51.188Z,4.5
2023-03-16T04:48:51.192Z,4.6
2023-03-16T04:49:51.184Z,4.6
2023-03-16T04:50:51.173Z,4.6
2023-03-16T04:51:51.170Z,4.6
2023-03-16T04:52:51.181Z,4.6
2023-03-16T04:53:51.168Z,4.6
2023-03-16T04:54:51.173Z,4.6
2023-03-16T04:55:51.189Z,4.6
2023-03-16T04:56:51.178Z,4.6
2023-03-16T04:57:51.172Z,4.6
2023-03-16T04:58:51.186Z,4.6
2023-03-16T04:59:51.188Z,4.6
2023-03-16T05:00:51.172Z,4.6
2023-03-16T05:01:51.228Z,4.6
2023-03-16T05:02:51.173Z,4.6
2023-03-16T05:03:51.174Z,4.6
2023-03-16T05:04:51.178Z,4.6
2023-03-16T05:05:51.268Z,4.6
2023-03-16T05:06:51.178Z,4.6
2023-03-16T05:07:51.194Z,4.6
2023-03-16T05:08:51.193Z,4.6
2023-03-16T05:09:51.213Z,4.6
2023-03-16T05:10:51.187Z,4.6
2023-03-16T05:11:51.180Z,4.7
2023-03-16T05:12:51.223Z,4.6
2023-03-16T05:13:51.172Z,4.6
2023-03-16T05:14:51.211Z,4.6
2023-03-16T05:15:51.223Z,4.6
2023-03-16T05:16:51.178Z,4.6
2023-03-16T05:17:51.238Z,4.7
2023-03-16T05:18:51.215Z,4.6
2023-03-16T05:19:51.254Z,4.6
2023-03-16T05:20:51.165Z,4.6
2023-03-16T05:21:51.171Z,4.6
2023-03-16T05:22:51.201Z,4.6
2023-03-16T05:23:51.171Z,4.6
2023-03-16T05:24:51.186Z,4.7
2023-03-16T05:25:51.196Z,4.7
2023-03-16T05:26:51.182Z,4.7
2023-03-16T05:27:51.181Z,4.7
2023-03-16T05:28:51.170Z,4.7
2023-03-16T05:29:51.177Z,4.7
2023-03-16T05:30:51.217Z,4.6
2023-03-16T05:31:51.171Z,4.7
2023-03-16T05:32:51.243Z,4.7
2023-03-16T05:33:51.178Z,4.7
2023-03-16T05:34:51.166Z,4.7
2023-03-16T05:35:51.272Z,4.7
2023-03-16T05:36:51.164Z,4.7
2023-03-16T05:37:51.174Z,4.7
2023-03-16T05:38:51.174Z,4.7
2023-03-16T05:39:51.205Z,4.7
2023-03-16T05:40:51.192Z,4.7
2023-03-16T05:41:51.175Z,4.7
2023-03-16T05:42:51.171Z,4.7
2023-03-16T05:43:51.178Z,4.7
2023-03-16T05:44:51.189Z,4.7
2023-03-16T05:45:51.174Z,4.7
2023-03-16T05:46:51.241Z,4.7
2023-03-16T05:47:51.174Z,4.7
2023-03-16T05:48:51.258Z,4.7
2023-03-16T05:49:51.317Z,4.7
2023-03-16T05:50:51.193Z,4.7
2023-03-16T05:51:51.262Z,4.7
2023-03-16T05:52:51.368Z,4.7
2023-03-16T05:53:51.181Z,4.7
2023-03-16T05:54:51.540Z,4.7
2023-03-16T05:55:51.228Z,4.7
2023-03-16T05:56:51.212Z,4.7
2023-03-16T05:57:51.278Z,4.7
2023-03-16T05:58:51.162Z,4.7
2023-03-16T05:59:51.176Z,4.7
2023-03-16T06:00:51.198Z,4.7
2023-03-16T06:01:51.169Z,4.7
2023-03-16T06:02:51.340Z,4.7
2023-03-16T06:03:51.195Z,4.7
2023-03-16T06:04:51.174Z,4.7
2023-03-16T06:05:51.172Z,4.7
2023-03-16T06:06:51.200Z,4.8
2023-03-16T06:07:51.164Z,4.8
2023-03-16T06:08:51.169Z,4.7
2023-03-16T06:09:51.194Z,4.7
2023-03-16T06:10:51.168Z,4.7
2023-03-16T06:11:51.209Z,4.7
2023-03-16T06:12:51.164Z,4.7
2023-03-16T06:13:51.161Z,4.7
2023-03-16T06:14:51.166Z,4.7
2023-03-16T06:15:51.277Z,4.7
2023-03-16T06:16:51.171Z,4.7
2023-03-16T06:17:51.171Z,4.7
2023-03-16T06:18:51.174Z,4.7
2023-03-16T06:19:51.171Z,4.8
2023-03-16T06:20:51.167Z,4.8
2023-03-16T06:21:51.216Z,4.8
2023-03-16T06:22:51.187Z,4.8
2023-03-16T06:23:51.165Z,4.8
2023-03-16T06:24:51.191Z,4.8
2023-03-16T06:25:51.193Z,4.8
2023-03-16T06:26:51.167Z,4.8
2023-03-16T06:27:51.161Z,4.8
2023-03-16T06:28:51.162Z,4.8
2023-03-16T06:29:51.207Z,4.8
2023-03-16T06:30:51.170Z,4.8
2023-03-16T06:31:51.256Z,4.8
2023-03-16T06:32:51.251Z,4.8
2023-03-16T06:33:51.161Z,4.8
2023-03-16T06:34:51.196Z,4.8
2023-03-16T06:35:51.229Z,4.8
2023-03-16T06:36:51.168Z,4.8
2023-03-16T06:37:51.180Z,4.8
2023-03-16T06:38:51.185Z,4.8
2023-03-16T06:39:51.199Z,4.9
2023-03-16T06:40:51.159Z,4.8
2023-03-16T06:41:51.161Z,4.8
2023-03-16T06:42:51.505Z,4.9
2023-03-16T06:43:51.172Z,4.9
2023-03-16T06:44:51.196Z,4.9
2023-03-16T06:45:51.182Z,4.9
2023-03-16T06:46:51.162Z,4.9
2023-03-16T06:47:51.158Z,4.8
2023-03-16T06:48:51.163Z,4.9
2023-03-16T06:49:51.182Z,4.9
2023-03-16T06:50:51.164Z,4.9
2023-03-16T06:51:51.160Z,4.9
2023-03-16T06:52:51.162Z,4.9
2023-03-16T06:53:51.174Z,4.9
2023-03-16T06:54:51.193Z,4.9
2023-03-16T06:55:51.175Z,5
2023-03-16T06:56:51.178Z,5
2023-03-16T06:57:51.173Z,5
2023-03-16T06:58:51.169Z,4.9
2023-03-16T06:59:51.183Z,5
2023-03-16T07:00:51.231Z,4.9
2023-03-16T07:01:51.166Z,4.9
2023-03-16T07:02:51.198Z,5
2023-03-16T07:03:51.226Z,5
2023-03-16T07:04:51.186Z,5
2023-03-16T07:05:51.170Z,5
2023-03-16T07:06:51.479Z,4.9
2023-03-16T07:07:51.193Z,4.9
2023-03-16T07:08:51.150Z,4.9
2023-03-16T07:09:51.169Z,4.9
2023-03-16T07:10:51.168Z,5
2023-03-16T07:11:51.165Z,5
2023-03-16T07:12:51.166Z,5
2023-03-16T07:13:51.186Z,5
2023-03-16T07:14:53.966Z,5
2023-03-16T07:15:51.178Z,5
2023-03-16T07:16:51.232Z,5
2023-03-16T07:17:51.165Z,5
2023-03-16T07:18:51.165Z,5
2023-03-16T07:19:51.175Z,5
2023-03-16T07:20:51.163Z,5
2023-03-16T07:21:51.182Z,5
2023-03-16T07:22:51.287Z,5
2023-03-16T07:23:51.151Z,5
2023-03-16T07:24:51.159Z,5
2023-03-16T07:25:51.168Z,5
2023-03-16T07:27:51.153Z,5
2023-03-16T07:28:51.164Z,5.1
2023-03-16T07:29:51.182Z,5.1
2023-03-16T07:31:02.874Z,5
2023-03-16T07:31:51.335Z,5.1
2023-03-16T07:32:51.185Z,5
2023-03-16T07:33:51.159Z,5.1
2023-03-16T07:34:51.184Z,5.1
2023-03-16T07:35:51.215Z,5.1
2023-03-16T07:36:51.159Z,5.1
2023-03-16T07:37:51.168Z,5.1
2023-03-16T07:38:51.160Z,5.1
2023-03-16T07:39:51.167Z,5.1
2023-03-16T07:40:51.143Z,5.1
2023-03-16T07:41:51.163Z,5.1
2023-03-16T07:42:51.148Z,5.1
2023-03-16T07:43:51.152Z,5.1
2023-03-16T07:44:51.974Z,5.1
2023-03-16T07:45:51.165Z,5.1
2023-03-16T07:46:51.158Z,5.1
2023-03-16T07:47:51.153Z,5.2
2023-03-16T07:48:51.163Z,5.1
2023-03-16T07:49:51.191Z,5.2
2023-03-16T07:50:51.154Z,5.2
2023-03-16T07:51:51.155Z,5.2
2023-03-16T07:52:51.144Z,5.3
2023-03-16T07:53:51.161Z,5.3
2023-03-16T07:54:51.187Z,5.3
2023-03-16T07:55:51.176Z,5.2
2023-03-16T07:56:51.155Z,5.2
2023-03-16T07:57:51.146Z,5.2
2023-03-16T07:58:51.167Z,5.3
2023-03-16T07:59:51.163Z,5.2
2023-03-16T08:00:51.156Z,5.2
2023-03-16T08:01:51.157Z,5.3
2023-03-16T08:02:51.188Z,5.1
2023-03-16T08:03:51.265Z,5.2
2023-03-16T08:04:51.179Z,5.1
2023-03-16T08:05:51.167Z,5.2
2023-03-16T08:06:51.146Z,5.3
2023-03-16T08:07:51.146Z,5.2
2023-03-16T08:08:51.161Z,5.2
2023-03-16T08:09:51.166Z,5.1
2023-03-16T08:10:51.150Z,5.2
2023-03-16T08:11:51.154Z,5.2
2023-03-16T08:12:51.200Z,5.2
2023-03-16T08:13:51.155Z,5.3
2023-03-16T08:14:51.234Z,5.2
2023-03-16T08:15:51.198Z,5.1
2023-03-16T08:16:51.155Z,5.2
2023-03-16T08:17:51.166Z,5.2
2023-03-16T08:18:51.158Z,5.2
2023-03-16T08:19:51.155Z,5.3
2023-03-16T08:20:51.164Z,5.3
2023-03-16T08:22:01.209Z,5.2
2023-03-16T08:22:51.159Z,5.2
2023-03-16T08:23:51.160Z,5.3
2023-03-16T08:24:51.168Z,5.4
2023-03-16T08:25:51.191Z,5.2
2023-03-16T08:26:51.152Z,5.3
2023-03-16T08:27:51.152Z,5.4
2023-03-16T08:28:51.189Z,5.4
2023-03-16T08:29:51.162Z,5.4
2023-03-16T08:30:51.284Z,5.4
2023-03-16T08:31:51.182Z,5.4
2023-03-16T08:32:51.202Z,5.4
2023-03-16T08:33:51.175Z,5.4
2023-03-16T08:34:51.157Z,5.5
2023-03-16T08:35:51.241Z,5.4
2023-03-16T08:36:51.160Z,5.4
2023-03-16T08:37:51.168Z,5.5
2023-03-16T08:39:06.140Z,5.5
2023-03-16T08:39:51.168Z,5.5
2023-03-16T08:40:51.152Z,5.5
2023-03-16T08:41:51.174Z,5.4
2023-03-16T08:42:51.155Z,5.4
2023-03-16T08:43:52.345Z,5.4
2023-03-16T08:44:51.159Z,5.5
2023-03-16T08:45:51.172Z,5.5
2023-03-16T08:46:51.331Z,5.5
2023-03-16T08:47:51.171Z,5.4
2023-03-16T08:48:51.156Z,5.5
2023-03-16T08:49:51.152Z,5.6
2023-03-16T08:50:51.161Z,5.6
2023-03-16T08:51:51.192Z,5.5
2023-03-16T08:52:51.154Z,5.5
2023-03-16T08:53:51.153Z,5.6
2023-03-16T08:55:02.343Z,5.5
2023-03-16T08:55:51.151Z,5.4
2023-03-16T08:56:51.158Z,5.4
2023-03-16T08:57:51.153Z,5.5
2023-03-16T08:58:51.618Z,5.5
2023-03-16T08:59:51.154Z,5.5
2023-03-16T09:00:51.173Z,5.5
2023-03-16T09:01:51.242Z,5.5
2023-03-16T09:02:51.154Z,5.5
2023-03-16T09:03:51.179Z,5.5
2023-03-16T09:04:51.165Z,5.6
2023-03-16T09:05:51.195Z,5.5
2023-03-16T09:07:05.931Z,5.5
2023-03-16T09:07:51.162Z,5.5
2023-03-16T09:08:51.143Z,5.5
2023-03-16T09:09:51.168Z,5.5
2023-03-16T09:10:51.228Z,5.6
2023-03-16T09:11:51.153Z,5.5
2023-03-16T09:12:51.143Z,5.6
2023-03-16T09:13:52.889Z,5.5
2023-03-16T09:14:51.150Z,5.5
2023-03-16T09:15:51.300Z,5.6
2023-03-16T09:16:51.153Z,5.6
2023-03-16T09:17:51.213Z,5.6
2023-03-16T09:18:51.148Z,5.6
2023-03-16T09:19:53.195Z,5.6
2023-03-16T09:20:51.147Z,5.5
2023-03-16T09:21:51.153Z,5.5
2023-03-16T09:22:51.169Z,5.5
2023-03-16T09:23:51.165Z,5.5
2023-03-16T09:24:51.189Z,5.7
2023-03-16T09:25:51.152Z,5.5
2023-03-16T09:26:51.209Z,5.3
2023-03-16T09:27:51.197Z,5.5
2023-03-16T09:28:51.192Z,5.6
2023-03-16T09:29:51.155Z,5.5
2023-03-16T09:30:51.169Z,5.5
2023-03-16T09:31:51.220Z,5.5
2023-03-16T09:32:51.324Z,5.4
2023-03-16T09:33:51.163Z,5.4
2023-03-16T09:34:51.179Z,5.3
2023-03-16T09:35:51.178Z,5.4
2023-03-16T09:36:51.145Z,5.5
2023-03-16T09:38:05.312Z,5.4
2023-03-16T09:38:51.165Z,5.5
2023-03-16T09:39:51.821Z,5.5
2023-03-16T09:40:51.154Z,5.3
2023-03-16T09:41:51.156Z,5.2
2023-03-16T09:42:51.144Z,5.2
2023-03-16T09:43:51.153Z,5.4
2023-03-16T09:44:51.145Z,5.5
2023-03-16T09:45:51.266Z,5.6
2023-03-16T09:46:51.179Z,5.3
2023-03-16T09:47:51.152Z,5.4
2023-03-16T09:48:51.177Z,5.5
2023-03-16T09:49:51.162Z,5.3
2023-03-16T09:50:51.634Z,5.4
2023-03-16T09:51:51.172Z,5.3
2023-03-16T09:52:51.157Z,5.3
2023-03-16T09:53:51.155Z,5.3
2023-03-16T09:54:51.166Z,5.2
2023-03-16T09:55:51.151Z,5.3
2023-03-16T09:56:51.175Z,5.2
2023-03-16T09:57:51.174Z,5.2
2023-03-16T09:58:51.164Z,5.3
2023-03-16T09:59:51.158Z,5.4
2023-03-16T10:00:51.179Z,5.3
2023-03-16T10:01:51.190Z,5.2
2023-03-16T10:02:51.156Z,5.3
2023-03-16T10:03:51.211Z,5.5
2023-03-16T10:04:51.150Z,5.5
2023-03-16T10:05:51.155Z,5.6
2023-03-16T10:06:51.163Z,5.6
2023-03-16T10:07:51.196Z,5.4
2023-03-16T10:08:51.171Z,5.5
2023-03-16T10:09:51.153Z,5.3
2023-03-16T10:10:51.145Z,5.2
2023-03-16T10:11:51.170Z,5.2
2023-03-16T10:12:51.170Z,5.2
2023-03-16T10:13:51.168Z,5.2
2023-03-16T10:14:51.226Z,5.3
2023-03-16T10:15:51.172Z,5.3
2023-03-16T10:16:51.203Z,5.1
2023-03-16T10:17:51.154Z,5.1
2023-03-16T10:18:51.161Z,5.3
2023-03-16T10:20:51.146Z,5.3
2023-03-16T10:21:51.173Z,5.2
2023-03-16T10:22:51.152Z,5.3
2023-03-16T10:23:51.160Z,5.1
2023-03-16T10:24:51.148Z,5.2
2023-03-16T10:25:51.160Z,5.3
2023-03-16T10:26:51.167Z,5.3
2023-03-16T10:27:51.162Z,5.3
2023-03-16T10:28:51.154Z,5.2
2023-03-16T10:29:51.151Z,5.1
2023-03-16T10:30:51.150Z,5.1
2023-03-16T10:31:51.234Z,5.2
2023-03-16T10:33:51.171Z,5.3
2023-03-16T10:34:51.180Z,5
2023-03-16T10:35:51.236Z,5.2
2023-03-16T10:36:51.162Z,5.3
2023-03-16T10:37:51.161Z,5.2
2023-03-16T10:38:51.154Z,5.3
2023-03-16T10:39:51.174Z,5.1
2023-03-16T10:40:51.168Z,5.2
2023-03-16T10:41:51.159Z,5.3
2023-03-16T10:42:51.169Z,5.3
2023-03-16T10:43:51.166Z,5.2
2023-03-16T10:44:51.171Z,5.2
2023-03-16T10:45:51.198Z,5.1
2023-03-16T10:46:51.348Z,5.3
2023-03-16T10:47:51.176Z,5.3
2023-03-16T10:48:51.152Z,5.3
2023-03-16T10:49:51.214Z,5.3
2023-03-16T10:50:51.162Z,5.3
2023-03-16T10:51:51.160Z,5.3
2023-03-16T10:52:51.160Z,5.4
2023-03-16T10:53:51.153Z,5.4
2023-03-16T10:54:51.165Z,5.2
2023-03-16T10:55:51.151Z,5.2
2023-03-16T10:56:51.155Z,5.3
2023-03-16T10:57:51.186Z,5.3
2023-03-16T10:58:51.152Z,5.4
2023-03-16T10:59:51.149Z,5.5
2023-03-16T11:00:51.293Z,5.3
2023-03-16T11:01:51.157Z,5.3
2023-03-16T11:02:51.172Z,5.3
2023-03-16T11:03:51.298Z,5.1
2023-03-16T11:04:51.229Z,5.2
2023-03-16T11:05:51.152Z,5.1
2023-03-16T11:06:51.196Z,5.2
2023-03-16T11:07:51.168Z,5.2
2023-03-16T11:08:52.884Z,5.2
2023-03-16T11:09:51.180Z,5.2
2023-03-16T11:10:55.918Z,5.4
2023-03-16T11:11:51.154Z,5.5
2023-03-16T11:12:51.164Z,5.5
2023-03-16T11:13:51.158Z,5.3
2023-03-16T11:14:51.179Z,5.4
2023-03-16T11:15:51.172Z,5.2
2023-03-16T11:16:51.321Z,5.4
2023-03-16T11:17:51.171Z,5.4
2023-03-16T11:18:51.182Z,5.5
2023-03-16T11:19:51.188Z,5.2
2023-03-16T11:20:51.174Z,5.2
2023-03-16T11:21:51.176Z,5.3
2023-03-16T11:22:51.171Z,5.4
2023-03-16T11:23:51.167Z,5.4
2023-03-16T11:24:51.185Z,5.3
2023-03-16T11:25:51.157Z,5.5
2023-03-16T11:26:51.167Z,5.4
2023-03-16T11:27:51.176Z,5.2
2023-03-16T11:28:51.160Z,5.3
2023-03-16T11:29:51.212Z,5.3
2023-03-16T11:30:51.231Z,5.4
2023-03-16T11:31:51.170Z,5.3
2023-03-16T11:32:51.284Z,5.2
2023-03-16T11:33:51.157Z,5.2
2023-03-16T11:34:51.188Z,5.4
2023-03-16T11:35:58.618Z,5.4
2023-03-16T11:36:51.172Z,5.4
2023-03-16T11:37:51.188Z,5.5
2023-03-16T11:38:51.178Z,5.5
2023-03-16T11:39:51.184Z,5.5
2023-03-16T11:40:51.198Z,5.4
2023-03-16T11:41:51.168Z,5.3
2023-03-16T11:42:51.168Z,5.4
2023-03-16T11:43:51.254Z,5.4
2023-03-16T11:44:51.179Z,5.2
2023-03-16T11:45:51.257Z,5.2
2023-03-16T11:46:51.238Z,5.3
2023-03-16T11:47:51.235Z,5.4
2023-03-16T11:49:51.273Z,5.3
2023-03-16T11:50:51.245Z,5.4
2023-03-16T11:51:51.239Z,5.3
2023-03-16T11:52:51.247Z,5.4
2023-03-16T11:53:51.244Z,5.4
2023-03-16T11:54:51.278Z,5.4
2023-03-16T11:55:51.239Z,5.4
2023-03-16T11:56:51.239Z,5.4
2023-03-16T11:57:51.909Z,5.2
2023-03-16T11:58:51.184Z,5.3
2023-03-16T12:00:00.652Z,5.3
2023-03-16T12:00:51.168Z,5.1
2023-03-16T12:02:00.109Z,5.1
2023-03-16T12:02:51.335Z,5.3
2023-03-16T12:03:51.180Z,5.2
2023-03-16T12:04:51.173Z,5.2
2023-03-16T12:05:51.165Z,5.2
2023-03-16T12:06:51.158Z,5.4
2023-03-16T12:07:51.165Z,5.2
2023-03-16T12:08:51.204Z,5.3
2023-03-16T12:09:51.179Z,5
2023-03-16T12:10:51.161Z,5.2
2023-03-16T12:11:51.163Z,5.1
2023-03-16T12:12:51.153Z,5.2
2023-03-16T12:13:51.159Z,5.2
2023-03-16T12:14:51.177Z,5.1
2023-03-16T12:15:51.220Z,5.3
2023-03-16T12:16:51.276Z,5.3
2023-03-16T12:17:51.152Z,5.4
2023-03-16T12:18:51.161Z,5.3
2023-03-16T12:19:51.174Z,5.3
2023-03-16T12:20:51.159Z,5.3
2023-03-16T12:21:51.156Z,5.2
2023-03-16T12:22:51.161Z,5.3
2023-03-16T12:23:51.143Z,5.3
2023-03-16T12:24:51.174Z,5.3
2023-03-16T12:25:51.171Z,5.4
2023-03-16T12:26:51.163Z,5.2
2023-03-16T12:27:51.181Z,5.1
2023-03-16T12:28:51.167Z,5.2
2023-03-16T12:29:51.170Z,5.2
2023-03-16T12:30:51.175Z,5
2023-03-16T12:31:51.229Z,5.2
2023-03-16T12:32:51.217Z,5.1
2023-03-16T12:33:51.156Z,4.9
2023-03-16T12:34:51.180Z,4.9
2023-03-16T12:35:51.209Z,5.1
2023-03-16T12:36:51.166Z,5
2023-03-16T12:37:51.181Z,4.9
2023-03-16T12:38:51.166Z,5.1
2023-03-16T12:39:51.189Z,5
2023-03-16T12:40:51.178Z,4.9
2023-03-16T12:41:51.152Z,5
2023-03-16T12:42:51.178Z,5.1
2023-03-16T12:43:51.239Z,5
2023-03-16T12:44:51.187Z,5.1
2023-03-16T12:45:51.208Z,5
2023-03-16T12:46:51.186Z,5.2
2023-03-16T12:47:51.167Z,5.1
2023-03-16T12:48:51.171Z,5.1
2023-03-16T12:49:51.159Z,5
2023-03-16T12:50:51.155Z,5.1
2023-03-16T12:51:51.150Z,5
2023-03-16T12:52:51.178Z,5
2023-03-16T12:53:51.154Z,5.2
2023-03-16T12:54:51.175Z,5.2
2023-03-16T12:55:51.159Z,5.1
2023-03-16T12:56:51.161Z,5.1
2023-03-16T12:57:51.178Z,5
2023-03-16T12:58:51.179Z,5
2023-03-16T12:59:51.153Z,5.2
2023-03-16T13:00:51.216Z,5.1
2023-03-16T13:01:51.166Z,5.1
2023-03-16T13:02:51.165Z,5.1
2023-03-16T13:03:51.180Z,5
2023-03-16T13:04:51.941Z,5.2
2023-03-16T13:05:51.168Z,5.1
2023-03-16T13:06:51.165Z,5.1
2023-03-16T13:07:51.168Z,5.2
2023-03-16T13:08:51.187Z,5.1
2023-03-16T13:09:51.184Z,5.1
2023-03-16T13:10:51.183Z,5.1
2023-03-16T13:11:51.180Z,5.1
2023-03-16T13:12:51.173Z,5.1
2023-03-16T13:13:51.322Z,5.1
2023-03-16T13:14:51.179Z,5.2
2023-03-16T13:15:51.182Z,5.1
2023-03-16T13:16:51.431Z,5.3
2023-03-16T13:17:51.197Z,5
2023-03-16T13:18:51.169Z,5
2023-03-16T13:19:51.176Z,5.1
2023-03-16T13:20:51.170Z,5
2023-03-16T13:21:51.178Z,5
2023-03-16T13:22:51.179Z,5
2023-03-16T13:23:51.216Z,5
2023-03-16T13:24:51.437Z,5
2023-03-16T13:25:51.229Z,5.2
2023-03-16T13:26:51.198Z,5.1
2023-03-16T13:27:51.178Z,5.1
2023-03-16T13:28:51.181Z,5
2023-03-16T13:29:51.191Z,5.1
2023-03-16T13:30:51.238Z,5.1
2023-03-16T13:31:51.236Z,5.3
2023-03-16T13:32:51.210Z,5.3
2023-03-16T13:33:51.175Z,5.2
2023-03-16T13:34:51.184Z,5.1
2023-03-16T13:35:51.331Z,5.2
2023-03-16T13:36:51.178Z,5.3
2023-03-16T13:37:51.189Z,5.3
2023-03-16T13:38:51.203Z,5.1
2023-03-16T13:39:51.170Z,5.1
2023-03-16T13:40:51.196Z,5.2
2023-03-16T13:41:51.218Z,5.2
2023-03-16T13:42:51.190Z,5.1
2023-03-16T13:43:51.192Z,5.1
2023-03-16T13:44:51.183Z,5.2
2023-03-16T13:45:51.247Z,5.1
2023-03-16T13:46:51.197Z,5.1
2023-03-16T13:47:51.177Z,5.1
2023-03-16T13:48:51.219Z,5.1
2023-03-16T13:49:51.178Z,5
2023-03-16T13:50:51.196Z,4.8
2023-03-16T13:51:51.178Z,4.9
2023-03-16T13:52:51.176Z,5
2023-03-16T13:53:51.192Z,5